Terminal Aerodrome Forecast
Issued by NWS

Home | Current Version | Previous Version | Text Only | Print | Product List | Glossary On
Versions: 1 2 3 4 5 6 7 8 9 10 11 12 13 14 15 16
915
FTUS42 KJAX 250529
TAFCRG
TAF
KCRG 250529Z 2506/2606 VRB02KT P6SM FEW090 BKN250
     FM251300 14004KT P6SM FEW250
     FM251700 10010KT P6SM FEW060 SCT250
     FM260100 13003KT P6SM FEW250=

USA.gov is the U.S. government's official web portal to all federal, state and local government web resources and services.